sensor_id;sensor_type;location;lat;lon;timestamp;P1;durP1;ratioP1;P2;durP2;ratioP2
40116;SDS011;25829;50.228;18.936;2023-04-19T00:02:09;22.38;;;16.30;;
40116;SDS011;25829;50.228;18.936;2023-04-19T00:05:10;23.73;;;15.20;;
40116;SDS011;25829;50.228;18.936;2023-04-19T00:08:12;24.20;;;15.45;;
40116;SDS011;25829;50.228;18.936;2023-04-19T00:11:13;21.73;;;15.45;;
40116;SDS011;25829;50.228;18.936;2023-04-19T00:14:14;22.30;;;15.43;;
40116;SDS011;25829;50.228;18.936;2023-04-19T00:17:23;28.80;;;16.02;;
40116;SDS011;25829;50.228;18.936;2023-04-19T00:20:24;23.52;;;14.63;;
40116;SDS011;25829;50.228;18.936;2023-04-19T00:23:25;24.60;;;15.70;;
40116;SDS011;25829;50.228;18.936;2023-04-19T00:26:31;21.52;;;14.65;;
40116;SDS011;25829;50.228;18.936;2023-04-19T00:29:33;20.00;;;13.30;;
40116;SDS011;25829;50.228;18.936;2023-04-19T00:32:33;17.70;;;13.40;;
40116;SDS011;25829;50.228;18.936;2023-04-19T00:35:34;18.77;;;12.48;;
40116;SDS011;25829;50.228;18.936;2023-04-19T00:38:35;17.05;;;12.88;;
40116;SDS011;25829;50.228;18.936;2023-04-19T00:41:36;16.60;;;11.60;;
40116;SDS011;25829;50.228;18.936;2023-04-19T00:44:37;17.95;;;12.70;;
40116;SDS011;25829;50.228;18.936;2023-04-19T00:47:39;16.42;;;12.20;;
40116;SDS011;25829;50.228;18.936;2023-04-19T01:00:19;14.93;;;11.13;;
40116;SDS011;25829;50.228;18.936;2023-04-19T01:03:20;14.80;;;10.82;;
40116;SDS011;25829;50.228;18.936;2023-04-19T01:06:27;16.15;;;11.32;;
40116;SDS011;25829;50.228;18.936;2023-04-19T01:09:32;13.10;;;10.90;;
40116;SDS011;25829;50.228;18.936;2023-04-19T01:12:34;15.47;;;10.97;;
40116;SDS011;25829;50.228;18.936;2023-04-19T01:15:41;17.58;;;10.93;;
40116;SDS011;25829;50.228;18.936;2023-04-19T01:18:42;14.17;;;11.40;;
40116;SDS011;25829;50.228;18.936;2023-04-19T01:21:42;17.03;;;12.00;;
40116;SDS011;25829;50.228;18.936;2023-04-19T01:24:43;20.07;;;10.90;;
40116;SDS011;25829;50.228;18.936;2023-04-19T01:27:47;14.03;;;11.13;;
40116;SDS011;25829;50.228;18.936;2023-04-19T01:30:49;15.90;;;11.23;;
40116;SDS011;25829;50.228;18.936;2023-04-19T01:36:58;15.70;;;12.17;;
40116;SDS011;25829;50.228;18.936;2023-04-19T01:40:08;17.13;;;11.83;;
40116;SDS011;25829;50.228;18.936;2023-04-19T01:43:20;18.70;;;11.93;;
40116;SDS011;25829;50.228;18.936;2023-04-19T01:46:21;18.20;;;12.40;;
40116;SDS011;25829;50.228;18.936;2023-04-19T01:49:22;16.20;;;11.50;;
40116;SDS011;25829;50.228;18.936;2023-04-19T01:56:06;13.20;;;10.33;;
40116;SDS011;25829;50.228;18.936;2023-04-19T01:59:07;14.23;;;10.67;;
40116;SDS011;25829;50.228;18.936;2023-04-19T02:02:07;15.43;;;10.13;;
40116;SDS011;25829;50.228;18.936;2023-04-19T02:05:11;16.37;;;10.13;;
40116;SDS011;25829;50.228;18.936;2023-04-19T02:08:12;13.97;;;10.13;;
40116;SDS011;25829;50.228;18.936;2023-04-19T02:11:13;14.73;;;10.20;;
40116;SDS011;25829;50.228;18.936;2023-04-19T02:14:14;14.53;;;9.63;;
40116;SDS011;25829;50.228;18.936;2023-04-19T02:17:14;11.00;;;8.97;;
40116;SDS011;25829;50.228;18.936;2023-04-19T02:20:27;15.33;;;10.40;;
40116;SDS011;25829;50.228;18.936;2023-04-19T02:23:33;12.57;;;9.30;;
40116;SDS011;25829;50.228;18.936;2023-04-19T02:26:38;14.33;;;9.53;;
40116;SDS011;25829;50.228;18.936;2023-04-19T02:29:45;11.33;;;8.83;;
40116;SDS011;25829;50.228;18.936;2023-04-19T02:32:46;13.80;;;10.33;;
40116;SDS011;25829;50.228;18.936;2023-04-19T02:35:50;12.03;;;8.87;;
40116;SDS011;25829;50.228;18.936;2023-04-19T02:38:51;13.10;;;9.67;;
40116;SDS011;25829;50.228;18.936;2023-04-19T02:41:54;14.93;;;8.70;;
40116;SDS011;25829;50.228;18.936;2023-04-19T02:44:56;12.10;;;8.97;;
40116;SDS011;25829;50.228;18.936;2023-04-19T02:47:58;13.75;;;9.50;;
40116;SDS011;25829;50.228;18.936;2023-04-19T02:50:58;13.03;;;9.27;;
40116;SDS011;25829;50.228;18.936;2023-04-19T02:54:00;11.07;;;8.80;;
40116;SDS011;25829;50.228;18.936;2023-04-19T02:57:02;11.03;;;8.83;;
40116;SDS011;25829;50.228;18.936;2023-04-19T03:00:03;11.77;;;9.17;;
40116;SDS011;25829;50.228;18.936;2023-04-19T03:03:06;10.73;;;8.53;;
40116;SDS011;25829;50.228;18.936;2023-04-19T03:06:08;13.87;;;10.07;;
40116;SDS011;25829;50.228;18.936;2023-04-19T03:09:08;15.03;;;10.10;;
40116;SDS011;25829;50.228;18.936;2023-04-19T03:12:09;14.50;;;11.10;;
40116;SDS011;25829;50.228;18.936;2023-04-19T03:15:11;17.40;;;12.43;;
40116;SDS011;25829;50.228;18.936;2023-04-19T03:18:12;17.77;;;11.87;;
40116;SDS011;25829;50.228;18.936;2023-04-19T03:21:28;20.40;;;12.30;;
40116;SDS011;25829;50.228;18.936;2023-04-19T03:24:32;16.80;;;10.73;;
40116;SDS011;25829;50.228;18.936;2023-04-19T03:27:47;16.53;;;12.27;;
40116;SDS011;25829;50.228;18.936;2023-04-19T03:30:53;15.17;;;12.17;;
40116;SDS011;25829;50.228;18.936;2023-04-19T03:33:53;17.77;;;13.80;;
40116;SDS011;25829;50.228;18.936;2023-04-19T03:36:59;15.40;;;12.70;;
40116;SDS011;25829;50.228;18.936;2023-04-19T03:40:00;18.70;;;14.77;;
40116;SDS011;25829;50.228;18.936;2023-04-19T03:43:06;20.10;;;14.73;;
40116;SDS011;25829;50.228;18.936;2023-04-19T03:46:08;22.03;;;16.37;;
40116;SDS011;25829;50.228;18.936;2023-04-19T03:49:09;21.37;;;15.20;;
40116;SDS011;25829;50.228;18.936;2023-04-19T03:52:10;20.87;;;15.70;;
40116;SDS011;25829;50.228;18.936;2023-04-19T03:55:11;23.87;;;17.50;;
40116;SDS011;25829;50.228;18.936;2023-04-19T03:58:15;21.13;;;16.47;;
40116;SDS011;25829;50.228;18.936;2023-04-19T04:01:41;17.70;;;13.03;;
40116;SDS011;25829;50.228;18.936;2023-04-19T04:04:42;17.67;;;14.17;;
40116;SDS011;25829;50.228;18.936;2023-04-19T04:07:43;13.93;;;11.07;;
40116;SDS011;25829;50.228;18.936;2023-04-19T04:10:44;15.03;;;10.30;;
40116;SDS011;25829;50.228;18.936;2023-04-19T04:13:45;13.23;;;10.00;;
40116;SDS011;25829;50.228;18.936;2023-04-19T04:16:52;12.53;;;10.27;;
40116;SDS011;25829;50.228;18.936;2023-04-19T04:19:56;14.63;;;10.43;;
40116;SDS011;25829;50.228;18.936;2023-04-19T04:23:00;11.67;;;9.33;;
40116;SDS011;25829;50.228;18.936;2023-04-19T04:26:02;13.53;;;11.10;;
40116;SDS011;25829;50.228;18.936;2023-04-19T04:29:19;11.27;;;9.13;;
40116;SDS011;25829;50.228;18.936;2023-04-19T04:32:22;10.37;;;8.83;;
40116;SDS011;25829;50.228;18.936;2023-04-19T04:35:26;10.47;;;8.43;;
40116;SDS011;25829;50.228;18.936;2023-04-19T04:38:39;13.27;;;8.40;;
40116;SDS011;25829;50.228;18.936;2023-04-19T04:41:40;10.40;;;8.23;;
40116;SDS011;25829;50.228;18.936;2023-04-19T04:44:41;11.77;;;9.40;;
40116;SDS011;25829;50.228;18.936;2023-04-19T04:47:44;10.93;;;8.57;;
40116;SDS011;25829;50.228;18.936;2023-04-19T04:50:51;12.17;;;9.37;;
40116;SDS011;25829;50.228;18.936;2023-04-19T04:53:52;13.70;;;10.20;;
40116;SDS011;25829;50.228;18.936;2023-04-19T04:56:54;14.93;;;11.80;;
40116;SDS011;25829;50.228;18.936;2023-04-19T04:59:55;12.03;;;10.47;;
40116;SDS011;25829;50.228;18.936;2023-04-19T05:02:58;13.10;;;10.50;;
40116;SDS011;25829;50.228;18.936;2023-04-19T05:05:59;11.73;;;10.50;;
40116;SDS011;25829;50.228;18.936;2023-04-19T05:09:00;11.50;;;8.87;;
40116;SDS011;25829;50.228;18.936;2023-04-19T05:12:07;11.57;;;8.87;;
40116;SDS011;25829;50.228;18.936;2023-04-19T05:15:09;14.43;;;10.80;;
40116;SDS011;25829;50.228;18.936;2023-04-19T05:18:13;13.87;;;11.07;;
40116;SDS011;25829;50.228;18.936;2023-04-19T05:21:15;14.77;;;11.57;;
40116;SDS011;25829;50.228;18.936;2023-04-19T05:24:19;15.70;;;11.87;;
40116;SDS011;25829;50.228;18.936;2023-04-19T05:27:21;13.20;;;10.87;;
40116;SDS011;25829;50.228;18.936;2023-04-19T05:30:22;12.13;;;10.17;;
40116;SDS011;25829;50.228;18.936;2023-04-19T05:33:24;11.33;;;9.30;;
40116;SDS011;25829;50.228;18.936;2023-04-19T05:36:28;12.17;;;9.73;;
40116;SDS011;25829;50.228;18.936;2023-04-19T05:39:32;13.57;;;9.90;;
40116;SDS011;25829;50.228;18.936;2023-04-19T05:42:33;10.37;;;8.10;;
40116;SDS011;25829;50.228;18.936;2023-04-19T05:45:34;9.67;;;8.53;;
40116;SDS011;25829;50.228;18.936;2023-04-19T05:48:34;12.37;;;9.93;;
40116;SDS011;25829;50.228;18.936;2023-04-19T05:51:59;12.17;;;8.63;;
40116;SDS011;25829;50.228;18.936;2023-04-19T05:55:09;10.03;;;8.83;;
40116;SDS011;25829;50.228;18.936;2023-04-19T05:58:15;9.63;;;8.60;;
40116;SDS011;25829;50.228;18.936;2023-04-19T06:01:16;10.60;;;9.17;;
40116;SDS011;25829;50.228;18.936;2023-04-19T06:04:20;10.37;;;9.10;;
40116;SDS011;25829;50.228;18.936;2023-04-19T06:07:22;9.10;;;7.83;;
40116;SDS011;25829;50.228;18.936;2023-04-19T06:10:25;7.73;;;6.93;;
40116;SDS011;25829;50.228;18.936;2023-04-19T06:13:33;8.33;;;7.10;;
40116;SDS011;25829;50.228;18.936;2023-04-19T06:16:35;8.97;;;7.07;;
40116;SDS011;25829;50.228;18.936;2023-04-19T06:19:41;6.13;;;4.80;;
40116;SDS011;25829;50.228;18.936;2023-04-19T06:22:51;9.57;;;6.97;;
40116;SDS011;25829;50.228;18.936;2023-04-19T06:25:52;9.17;;;5.73;;
40116;SDS011;25829;50.228;18.936;2023-04-19T06:28:56;7.43;;;4.80;;
40116;SDS011;25829;50.228;18.936;2023-04-19T06:32:00;7.20;;;4.10;;
40116;SDS011;25829;50.228;18.936;2023-04-19T06:35:04;5.70;;;3.60;;
40116;SDS011;25829;50.228;18.936;2023-04-19T06:38:08;6.87;;;4.33;;
40116;SDS011;25829;50.228;18.936;2023-04-19T06:41:18;6.10;;;3.80;;
40116;SDS011;25829;50.228;18.936;2023-04-19T06:44:28;8.13;;;5.50;;
40116;SDS011;25829;50.228;18.936;2023-04-19T06:47:29;9.20;;;6.53;;
40116;SDS011;25829;50.228;18.936;2023-04-19T06:50:41;4.73;;;3.53;;
40116;SDS011;25829;50.228;18.936;2023-04-19T06:53:42;4.03;;;3.50;;
40116;SDS011;25829;50.228;18.936;2023-04-19T06:56:47;3.23;;;2.90;;
40116;SDS011;25829;50.228;18.936;2023-04-19T06:59:49;5.60;;;2.80;;
40116;SDS011;25829;50.228;18.936;2023-04-19T07:02:52;3.90;;;3.30;;
40116;SDS011;25829;50.228;18.936;2023-04-19T07:05:56;2.60;;;2.10;;
40116;SDS011;25829;50.228;18.936;2023-04-19T07:09:00;4.47;;;2.60;;
40116;SDS011;25829;50.228;18.936;2023-04-19T07:12:03;2.80;;;2.50;;
40116;SDS011;25829;50.228;18.936;2023-04-19T07:15:06;2.63;;;2.43;;
40116;SDS011;25829;50.228;18.936;2023-04-19T07:18:18;3.00;;;2.47;;
40116;SDS011;25829;50.228;18.936;2023-04-19T07:21:18;2.97;;;2.67;;
40116;SDS011;25829;50.228;18.936;2023-04-19T07:24:23;3.40;;;2.77;;
40116;SDS011;25829;50.228;18.936;2023-04-19T07:27:25;3.10;;;2.50;;
40116;SDS011;25829;50.228;18.936;2023-04-19T07:30:29;3.73;;;2.63;;
40116;SDS011;25829;50.228;18.936;2023-04-19T07:33:33;2.87;;;2.57;;
40116;SDS011;25829;50.228;18.936;2023-04-19T07:36:33;2.80;;;2.43;;
40116;SDS011;25829;50.228;18.936;2023-04-19T07:39:36;2.83;;;2.30;;
40116;SDS011;25829;50.228;18.936;2023-04-19T07:42:37;5.87;;;2.90;;
40116;SDS011;25829;50.228;18.936;2023-04-19T07:45:37;2.70;;;2.30;;
40116;SDS011;25829;50.228;18.936;2023-04-19T07:48:39;2.70;;;2.50;;
40116;SDS011;25829;50.228;18.936;2023-04-19T07:51:40;3.23;;;2.50;;
40116;SDS011;25829;50.228;18.936;2023-04-19T07:54:41;3.73;;;2.60;;
40116;SDS011;25829;50.228;18.936;2023-04-19T07:57:41;2.77;;;2.47;;
40116;SDS011;25829;50.228;18.936;2023-04-19T08:00:47;2.97;;;2.67;;
40116;SDS011;25829;50.228;18.936;2023-04-19T08:03:51;3.70;;;2.40;;
40116;SDS011;25829;50.228;18.936;2023-04-19T08:06:51;3.47;;;2.70;;
40116;SDS011;25829;50.228;18.936;2023-04-19T08:09:55;2.00;;;1.70;;
40116;SDS011;25829;50.228;18.936;2023-04-19T08:13:07;2.30;;;2.10;;
40116;SDS011;25829;50.228;18.936;2023-04-19T08:16:08;2.43;;;2.23;;
40116;SDS011;25829;50.228;18.936;2023-04-19T08:19:08;2.47;;;2.20;;
40116;SDS011;25829;50.228;18.936;2023-04-19T08:22:09;3.07;;;2.13;;
40116;SDS011;25829;50.228;18.936;2023-04-19T08:25:10;2.17;;;2.00;;
40116;SDS011;25829;50.228;18.936;2023-04-19T08:28:11;2.80;;;2.33;;
40116;SDS011;25829;50.228;18.936;2023-04-19T08:31:15;2.67;;;2.23;;
40116;SDS011;25829;50.228;18.936;2023-04-19T08:34:40;2.40;;;1.93;;
40116;SDS011;25829;50.228;18.936;2023-04-19T08:37:41;2.63;;;2.10;;
40116;SDS011;25829;50.228;18.936;2023-04-19T08:40:46;2.43;;;2.23;;
40116;SDS011;25829;50.228;18.936;2023-04-19T08:43:51;2.57;;;2.33;;
40116;SDS011;25829;50.228;18.936;2023-04-19T08:46:57;2.33;;;2.13;;
40116;SDS011;25829;50.228;18.936;2023-04-19T08:50:06;2.70;;;2.47;;
40116;SDS011;25829;50.228;18.936;2023-04-19T08:53:08;2.63;;;2.43;;
40116;SDS011;25829;50.228;18.936;2023-04-19T08:56:10;3.33;;;2.63;;
40116;SDS011;25829;50.228;18.936;2023-04-19T08:59:12;4.32;;;2.50;;
40116;SDS011;25829;50.228;18.936;2023-04-19T09:02:13;4.83;;;3.00;;
40116;SDS011;25829;50.228;18.936;2023-04-19T09:05:15;4.37;;;2.20;;
40116;SDS011;25829;50.228;18.936;2023-04-19T09:08:26;3.40;;;2.70;;
40116;SDS011;25829;50.228;18.936;2023-04-19T09:11:34;4.73;;;3.00;;
40116;SDS011;25829;50.228;18.936;2023-04-19T09:14:40;3.88;;;2.78;;
40116;SDS011;25829;50.228;18.936;2023-04-19T09:17:45;4.38;;;2.47;;
40116;SDS011;25829;50.228;18.936;2023-04-19T09:21:03;3.20;;;2.35;;
40116;SDS011;25829;50.228;18.936;2023-04-19T09:24:05;2.80;;;2.33;;
40116;SDS011;25829;50.228;18.936;2023-04-19T09:27:06;3.50;;;2.60;;
40116;SDS011;25829;50.228;18.936;2023-04-19T09:30:14;2.83;;;2.50;;
40116;SDS011;25829;50.228;18.936;2023-04-19T09:36:36;3.03;;;2.73;;
40116;SDS011;25829;50.228;18.936;2023-04-19T09:39:36;9.10;;;7.50;;
40116;SDS011;25829;50.228;18.936;2023-04-19T09:42:44;8.90;;;7.77;;
40116;SDS011;25829;50.228;18.936;2023-04-19T09:45:45;10.77;;;8.70;;
40116;SDS011;25829;50.228;18.936;2023-04-19T09:51:54;10.00;;;7.53;;
40116;SDS011;25829;50.228;18.936;2023-04-19T09:54:56;8.57;;;6.87;;
40116;SDS011;25829;50.228;18.936;2023-04-19T09:57:59;9.83;;;6.67;;
40116;SDS011;25829;50.228;18.936;2023-04-19T10:01:00;10.60;;;7.20;;
40116;SDS011;25829;50.228;18.936;2023-04-19T10:04:03;8.90;;;7.10;;
40116;SDS011;25829;50.228;18.936;2023-04-19T10:07:07;8.27;;;6.47;;
40116;SDS011;25829;50.228;18.936;2023-04-19T10:10:08;9.33;;;7.47;;
40116;SDS011;25829;50.228;18.936;2023-04-19T10:13:10;12.47;;;7.87;;
40116;SDS011;25829;50.228;18.936;2023-04-19T10:16:12;10.10;;;8.03;;
40116;SDS011;25829;50.228;18.936;2023-04-19T10:19:15;10.27;;;7.70;;
40116;SDS011;25829;50.228;18.936;2023-04-19T10:22:17;10.37;;;7.73;;
40116;SDS011;25829;50.228;18.936;2023-04-19T10:25:18;11.67;;;7.37;;
40116;SDS011;25829;50.228;18.936;2023-04-19T10:28:28;9.33;;;7.43;;
40116;SDS011;25829;50.228;18.936;2023-04-19T10:31:30;11.23;;;8.30;;
40116;SDS011;25829;50.228;18.936;2023-04-19T10:34:38;12.43;;;7.40;;
40116;SDS011;25829;50.228;18.936;2023-04-19T10:37:39;10.40;;;8.07;;
40116;SDS011;25829;50.228;18.936;2023-04-19T10:46:55;9.77;;;7.57;;
40116;SDS011;25829;50.228;18.936;2023-04-19T10:49:58;10.47;;;8.60;;
40116;SDS011;25829;50.228;18.936;2023-04-19T10:53:27;11.23;;;8.20;;
40116;SDS011;25829;50.228;18.936;2023-04-19T10:56:55;10.93;;;7.97;;
40116;SDS011;25829;50.228;18.936;2023-04-19T11:00:19;10.40;;;8.40;;
40116;SDS011;25829;50.228;18.936;2023-04-19T11:09:51;11.43;;;9.23;;
40116;SDS011;25829;50.228;18.936;2023-04-19T11:12:52;11.80;;;8.77;;
40116;SDS011;25829;50.228;18.936;2023-04-19T11:15:53;12.17;;;8.40;;
40116;SDS011;25829;50.228;18.936;2023-04-19T11:18:58;14.00;;;8.97;;
40116;SDS011;25829;50.228;18.936;2023-04-19T11:21:59;12.60;;;8.83;;
40116;SDS011;25829;50.228;18.936;2023-04-19T11:28:14;9.87;;;7.90;;
40116;SDS011;25829;50.228;18.936;2023-04-19T11:31:17;9.63;;;8.03;;
40116;SDS011;25829;50.228;18.936;2023-04-19T11:34:21;9.63;;;7.80;;
40116;SDS011;25829;50.228;18.936;2023-04-19T11:37:22;10.40;;;8.53;;
40116;SDS011;25829;50.228;18.936;2023-04-19T11:40:24;11.93;;;8.33;;
40116;SDS011;25829;50.228;18.936;2023-04-19T11:43:32;11.57;;;9.10;;
40116;SDS011;25829;50.228;18.936;2023-04-19T11:46:36;12.93;;;9.70;;
40116;SDS011;25829;50.228;18.936;2023-04-19T11:49:37;14.57;;;10.83;;
40116;SDS011;25829;50.228;18.936;2023-04-19T11:52:38;13.93;;;11.40;;
40116;SDS011;25829;50.228;18.936;2023-04-19T11:55:43;17.77;;;12.67;;
40116;SDS011;25829;50.228;18.936;2023-04-19T11:58:55;14.53;;;10.90;;
40116;SDS011;25829;50.228;18.936;2023-04-19T12:02:10;14.43;;;10.80;;
40116;SDS011;25829;50.228;18.936;2023-04-19T12:05:12;15.40;;;11.50;;
40116;SDS011;25829;50.228;18.936;2023-04-19T12:08:14;21.10;;;14.23;;
40116;SDS011;25829;50.228;18.936;2023-04-19T12:11:16;23.70;;;15.97;;
40116;SDS011;25829;50.228;18.936;2023-04-19T12:14:22;21.93;;;15.47;;
40116;SDS011;25829;50.228;18.936;2023-04-19T12:17:26;21.50;;;15.90;;
40116;SDS011;25829;50.228;18.936;2023-04-19T12:20:36;21.13;;;16.00;;
40116;SDS011;25829;50.228;18.936;2023-04-19T12:23:38;20.13;;;13.43;;
40116;SDS011;25829;50.228;18.936;2023-04-19T12:26:55;17.27;;;13.50;;
40116;SDS011;25829;50.228;18.936;2023-04-19T12:29:56;16.97;;;13.80;;
40116;SDS011;25829;50.228;18.936;2023-04-19T12:32:57;17.57;;;12.60;;
40116;SDS011;25829;50.228;18.936;2023-04-19T12:35:58;17.20;;;14.07;;
40116;SDS011;25829;50.228;18.936;2023-04-19T12:38:59;17.30;;;13.60;;
40116;SDS011;25829;50.228;18.936;2023-04-19T12:42:00;19.60;;;14.23;;
40116;SDS011;25829;50.228;18.936;2023-04-19T12:45:05;17.33;;;13.90;;
40116;SDS011;25829;50.228;18.936;2023-04-19T12:48:06;23.37;;;15.63;;
40116;SDS011;25829;50.228;18.936;2023-04-19T12:51:07;28.13;;;14.10;;
40116;SDS011;25829;50.228;18.936;2023-04-19T12:54:08;20.27;;;14.87;;
40116;SDS011;25829;50.228;18.936;2023-04-19T12:57:09;19.63;;;15.33;;
40116;SDS011;25829;50.228;18.936;2023-04-19T13:00:10;21.63;;;14.70;;
40116;SDS011;25829;50.228;18.936;2023-04-19T13:03:11;17.00;;;13.47;;
40116;SDS011;25829;50.228;18.936;2023-04-19T13:06:12;20.13;;;14.87;;
40116;SDS011;25829;50.228;18.936;2023-04-19T13:09:14;21.70;;;15.53;;
40116;SDS011;25829;50.228;18.936;2023-04-19T13:12:15;20.17;;;14.30;;
40116;SDS011;25829;50.228;18.936;2023-04-19T13:15:16;21.87;;;15.03;;
40116;SDS011;25829;50.228;18.936;2023-04-19T13:18:23;22.13;;;15.53;;
40116;SDS011;25829;50.228;18.936;2023-04-19T13:21:24;24.23;;;15.67;;
40116;SDS011;25829;50.228;18.936;2023-04-19T13:24:26;26.90;;;18.40;;
40116;SDS011;25829;50.228;18.936;2023-04-19T13:27:30;23.67;;;17.87;;
40116;SDS011;25829;50.228;18.936;2023-04-19T13:30:31;23.57;;;16.07;;
40116;SDS011;25829;50.228;18.936;2023-04-19T13:33:32;23.23;;;16.27;;
40116;SDS011;25829;50.228;18.936;2023-04-19T13:36:32;22.33;;;16.73;;
40116;SDS011;25829;50.228;18.936;2023-04-19T13:39:33;16.63;;;13.83;;
40116;SDS011;25829;50.228;18.936;2023-04-19T13:42:34;15.27;;;11.97;;
40116;SDS011;25829;50.228;18.936;2023-04-19T13:45:35;13.23;;;10.90;;
40116;SDS011;25829;50.228;18.936;2023-04-19T13:48:36;14.33;;;10.57;;
40116;SDS011;25829;50.228;18.936;2023-04-19T13:51:37;13.37;;;10.73;;
40116;SDS011;25829;50.228;18.936;2023-04-19T13:54:40;12.10;;;10.80;;
40116;SDS011;25829;50.228;18.936;2023-04-19T13:57:41;12.50;;;10.33;;
40116;SDS011;25829;50.228;18.936;2023-04-19T14:00:43;11.73;;;9.93;;
40116;SDS011;25829;50.228;18.936;2023-04-19T14:03:44;13.17;;;11.27;;
40116;SDS011;25829;50.228;18.936;2023-04-19T14:06:45;11.70;;;10.50;;
40116;SDS011;25829;50.228;18.936;2023-04-19T14:09:45;13.07;;;11.67;;
40116;SDS011;25829;50.228;18.936;2023-04-19T14:12:47;13.37;;;11.00;;
40116;SDS011;25829;50.228;18.936;2023-04-19T14:15:52;13.57;;;11.40;;
40116;SDS011;25829;50.228;18.936;2023-04-19T14:18:53;15.13;;;12.00;;
40116;SDS011;25829;50.228;18.936;2023-04-19T14:21:56;16.93;;;12.93;;
40116;SDS011;25829;50.228;18.936;2023-04-19T14:24:58;15.20;;;12.57;;
40116;SDS011;25829;50.228;18.936;2023-04-19T14:27:59;17.13;;;12.00;;
40116;SDS011;25829;50.228;18.936;2023-04-19T14:31:00;19.57;;;11.57;;
40116;SDS011;25829;50.228;18.936;2023-04-19T14:34:00;12.90;;;10.87;;
40116;SDS011;25829;50.228;18.936;2023-04-19T14:37:01;13.50;;;11.53;;
40116;SDS011;25829;50.228;18.936;2023-04-19T14:40:02;14.20;;;11.40;;
40116;SDS011;25829;50.228;18.936;2023-04-19T14:43:04;18.17;;;14.77;;
40116;SDS011;25829;50.228;18.936;2023-04-19T14:46:11;20.60;;;14.53;;
40116;SDS011;25829;50.228;18.936;2023-04-19T14:49:12;20.07;;;15.23;;
40116;SDS011;25829;50.228;18.936;2023-04-19T14:52:13;19.47;;;14.63;;
40116;SDS011;25829;50.228;18.936;2023-04-19T14:55:13;17.43;;;14.03;;
40116;SDS011;25829;50.228;18.936;2023-04-19T14:58:14;20.03;;;15.93;;
40116;SDS011;25829;50.228;18.936;2023-04-19T15:01:15;18.17;;;15.60;;
40116;SDS011;25829;50.228;18.936;2023-04-19T15:04:16;23.90;;;14.80;;
40116;SDS011;25829;50.228;18.936;2023-04-19T15:07:19;19.90;;;14.33;;
40116;SDS011;25829;50.228;18.936;2023-04-19T15:10:28;20.27;;;15.70;;
40116;SDS011;25829;50.228;18.936;2023-04-19T15:13:28;18.90;;;14.77;;
40116;SDS011;25829;50.228;18.936;2023-04-19T15:16:29;18.10;;;14.00;;
40116;SDS011;25829;50.228;18.936;2023-04-19T15:19:30;18.00;;;14.37;;
40116;SDS011;25829;50.228;18.936;2023-04-19T15:22:31;19.10;;;15.67;;
40116;SDS011;25829;50.228;18.936;2023-04-19T15:25:36;19.23;;;16.13;;
40116;SDS011;25829;50.228;18.936;2023-04-19T15:32:03;21.03;;;16.10;;
40116;SDS011;25829;50.228;18.936;2023-04-19T15:35:04;16.53;;;14.50;;
40116;SDS011;25829;50.228;18.936;2023-04-19T15:38:05;18.60;;;14.60;;
40116;SDS011;25829;50.228;18.936;2023-04-19T15:41:06;17.70;;;13.97;;
40116;SDS011;25829;50.228;18.936;2023-04-19T15:44:07;14.67;;;12.10;;
40116;SDS011;25829;50.228;18.936;2023-04-19T15:47:08;14.07;;;11.57;;
40116;SDS011;25829;50.228;18.936;2023-04-19T15:50:08;14.27;;;12.00;;
40116;SDS011;25829;50.228;18.936;2023-04-19T15:53:09;15.73;;;13.03;;
40116;SDS011;25829;50.228;18.936;2023-04-19T15:56:10;15.73;;;12.47;;
40116;SDS011;25829;50.228;18.936;2023-04-19T15:59:11;16.97;;;14.13;;
40116;SDS011;25829;50.228;18.936;2023-04-19T16:02:12;19.47;;;15.67;;
40116;SDS011;25829;50.228;18.936;2023-04-19T16:05:12;23.30;;;17.20;;
40116;SDS011;25829;50.228;18.936;2023-04-19T16:08:33;23.13;;;16.53;;
40116;SDS011;25829;50.228;18.936;2023-04-19T16:11:40;23.07;;;16.90;;
40116;SDS011;25829;50.228;18.936;2023-04-19T16:14:41;22.60;;;17.80;;
40116;SDS011;25829;50.228;18.936;2023-04-19T16:17:42;27.03;;;19.90;;
40116;SDS011;25829;50.228;18.936;2023-04-19T16:20:42;26.60;;;19.43;;
40116;SDS011;25829;50.228;18.936;2023-04-19T16:23:43;25.03;;;18.93;;
40116;SDS011;25829;50.228;18.936;2023-04-19T16:26:44;25.27;;;19.27;;
40116;SDS011;25829;50.228;18.936;2023-04-19T16:29:45;28.10;;;18.90;;
40116;SDS011;25829;50.228;18.936;2023-04-19T16:32:45;23.17;;;18.27;;
40116;SDS011;25829;50.228;18.936;2023-04-19T16:35:46;23.20;;;17.90;;
40116;SDS011;25829;50.228;18.936;2023-04-19T16:42:11;21.37;;;17.73;;
40116;SDS011;25829;50.228;18.936;2023-04-19T16:45:11;25.43;;;18.53;;
40116;SDS011;25829;50.228;18.936;2023-04-19T16:48:14;23.10;;;19.20;;
40116;SDS011;25829;50.228;18.936;2023-04-19T16:51:14;23.33;;;19.23;;
40116;SDS011;25829;50.228;18.936;2023-04-19T16:54:15;25.33;;;18.40;;
40116;SDS011;25829;50.228;18.936;2023-04-19T16:57:16;24.13;;;19.53;;
40116;SDS011;25829;50.228;18.936;2023-04-19T17:00:29;23.13;;;19.00;;
40116;SDS011;25829;50.228;18.936;2023-04-19T17:03:30;27.47;;;19.20;;
40116;SDS011;25829;50.228;18.936;2023-04-19T17:06:31;22.50;;;18.30;;
40116;SDS011;25829;50.228;18.936;2023-04-19T17:09:33;21.20;;;18.77;;
40116;SDS011;25829;50.228;18.936;2023-04-19T17:12:34;22.53;;;18.07;;
40116;SDS011;25829;50.228;18.936;2023-04-19T17:15:36;23.37;;;18.20;;
40116;SDS011;25829;50.228;18.936;2023-04-19T17:18:37;24.27;;;19.67;;
40116;SDS011;25829;50.228;18.936;2023-04-19T17:24:49;28.37;;;19.30;;
40116;SDS011;25829;50.228;18.936;2023-04-19T17:27:50;23.53;;;18.07;;
40116;SDS011;25829;50.228;18.936;2023-04-19T17:30:57;23.77;;;17.60;;
40116;SDS011;25829;50.228;18.936;2023-04-19T17:37:04;25.80;;;18.17;;
40116;SDS011;25829;50.228;18.936;2023-04-19T17:40:05;20.77;;;17.10;;
40116;SDS011;25829;50.228;18.936;2023-04-19T17:43:12;24.50;;;18.33;;
40116;SDS011;25829;50.228;18.936;2023-04-19T17:46:14;25.70;;;19.00;;
40116;SDS011;25829;50.228;18.936;2023-04-19T17:49:15;23.40;;;18.10;;
40116;SDS011;25829;50.228;18.936;2023-04-19T17:52:26;25.03;;;18.50;;
40116;SDS011;25829;50.228;18.936;2023-04-19T17:55:26;24.40;;;19.03;;
40116;SDS011;25829;50.228;18.936;2023-04-19T17:58:27;24.77;;;19.60;;
40116;SDS011;25829;50.228;18.936;2023-04-19T18:04:52;24.97;;;18.03;;
40116;SDS011;25829;50.228;18.936;2023-04-19T18:07:53;26.40;;;18.83;;
40116;SDS011;25829;50.228;18.936;2023-04-19T18:10:54;23.87;;;19.83;;
40116;SDS011;25829;50.228;18.936;2023-04-19T18:13:54;22.57;;;17.87;;
40116;SDS011;25829;50.228;18.936;2023-04-19T18:16:55;28.43;;;18.70;;
40116;SDS011;25829;50.228;18.936;2023-04-19T18:19:56;24.50;;;18.43;;
40116;SDS011;25829;50.228;18.936;2023-04-19T18:22:57;23.17;;;17.97;;
40116;SDS011;25829;50.228;18.936;2023-04-19T18:25:59;28.10;;;19.70;;
40116;SDS011;25829;50.228;18.936;2023-04-19T18:29:01;26.20;;;19.53;;
40116;SDS011;25829;50.228;18.936;2023-04-19T18:32:03;26.93;;;19.60;;
40116;SDS011;25829;50.228;18.936;2023-04-19T18:35:05;28.87;;;20.67;;
40116;SDS011;25829;50.228;18.936;2023-04-19T18:38:09;27.57;;;19.70;;
40116;SDS011;25829;50.228;18.936;2023-04-19T18:41:09;28.60;;;19.17;;